Nearby METAR Reports

 

YMER - Merimbula Arpt, Australia
Distance from station: SE 12km
Updated: Fri, 19-Oct-2018 1:00am AEDT
Clear
Clear
 Wind from calm
Wind: Calm
Temperature: 14°C
Dew Point: 13°C
Humidity: 94%
Barometer: 1015 hPa
Clouds: Clear
Visibility: 8 km
2018/10/18 14:00 YMER 181400Z AUTO 00000KT 8000 // NCD 14/13 Q1015
YCOM - Cooma Snowy Mtns, Australia
Distance from station: NW 96km
Updated: Fri, 19-Oct-2018 1:00am AEDT
Clear
Clear
 Wind from SSW
Wind: SSW 6 km/h
Temperature: 6°C
Dew Point: 4°C
Humidity: 87%
Barometer: 1019 hPa
Clouds: Clear
Visibility: 10 km
2018/10/18 14:00 YCOM 181400Z AUTO 20003KT 9999 // NCD 06/04 Q1019
 
YSCB - Canberra (civ/Mi, Australia
Distance from station: NNW 182km
Updated: Fri, 19-Oct-2018 1:00am AEDT
Clear
Clear
 Wind from W
Wind: W 4 km/h
Temperature: 10°C
Dew Point: 7°C
Humidity: 82%
Barometer: 1018 hPa
Clouds: Clear
Visibility: 10 km
2018/10/18 14:00 YSCB 181400Z AUTO 27002KT 9999 // NCD 10/07 Q1018
YSNW - Nowra (aus-Navy), Australia
Distance from station: NNE 219km
Updated: Fri, 19-Oct-2018 1:00am AEDT
Clear
Clear
 Wind from E
Wind: E 6 km/h
Temperature: 16°C
Dew Point: 16°C
Humidity: 100%
Barometer: 1016 hPa
Clouds: Clear
Visibility: 10 km
2018/10/18 14:00 YSNW 181400Z AUTO 09003KT 9999 // NCD 16/16 Q1016
 
YMAY - Albury Airport, Australia
Distance from station: WNW 271km
Updated: Fri, 19-Oct-2018 1:00am AEDT
Clear
Clear
 Wind from calm
Wind: Calm
Temperature: 12°C
Dew Point: 11°C
Humidity: 94%
Barometer: 1017 hPa
Clouds: Clear
Visibility: 10 km
2018/10/18 14:00 YMAY 181400Z AUTO 00000KT 9999 // NCD 12/11 Q1017
YSWG - Wagga Wagga(Cv/M, Australia
Distance from station: NW 283km
Updated: Fri, 19-Oct-2018 1:00am AEDT
Clear
Clear
 Wind from calm
Wind: Calm
Temperature: 12°C
Dew Point: 9°C
Humidity: 82%
Barometer: 1017 hPa
Clouds: Clear
Visibility: 10 km
2018/10/18 14:00 YSWG 181400Z AUTO 00000KT 9999 // NCD 12/09 Q1017
 
YWGT - Wangaratta Arp, Australia
Distance from station: W 317km
Updated: Fri, 19-Oct-2018 1:03am AEDT

 Wind from calm
Wind: Calm
Temperature: 10°C
Dew Point: 10°C
Humidity: 100%
Barometer: 1017 hPa
Visibility: 10 km
2018/10/18 14:03 YWGT 181403Z AUTO 00000KT 9999 // ////// 10/10 Q1017
YSSY - Sydney Intl Airp, Australia
Distance from station: NNE 343km
Updated: Fri, 19-Oct-2018 1:00am AEDT
Few Clouds
Few Clouds
 Wind from NE
Wind: NE 13 km/h
Temperature: 19°C
Dew Point: 18°C
Humidity: 94%
Barometer: 1017 hPa
Clouds: Few Clouds
Visibility: 10 km
Cloud details: Few Clouds 610 m
2018/10/18 14:00 YSSY 181400Z 04007KT 9999 FEW020 19/18 Q1017 FM1530 02008KT 9999 SCT005